sensor_id;sensor_type;location;lat;lon;timestamp;pressure;altitude;pressure_sealevel;temperature
65272;BMP280;51868;48.812;8.198;2023-04-06T00:01:24;100724.97;;;5.33
65272;BMP280;51868;48.812;8.198;2023-04-06T00:03:53;100720.66;;;5.30
65272;BMP280;51868;48.812;8.198;2023-04-06T00:06:21;100720.66;;;5.30
65272;BMP280;51868;48.812;8.198;2023-04-06T00:08:49;100723.47;;;5.23
65272;BMP280;51868;48.812;8.198;2023-04-06T00:11:16;100728.66;;;5.18
65272;BMP280;51868;48.812;8.198;2023-04-06T00:13:44;100726.25;;;5.23
65272;BMP280;51868;48.812;8.198;2023-04-06T00:16:12;100727.28;;;5.27
65272;BMP280;51868;48.812;8.198;2023-04-06T00:18:39;100722.50;;;5.28
65272;BMP280;51868;48.812;8.198;2023-04-06T00:21:10;100723.22;;;5.28
65272;BMP280;51868;48.812;8.198;2023-04-06T00:23:39;100726.72;;;5.29
65272;BMP280;51868;48.812;8.198;2023-04-06T00:26:07;100721.06;;;5.27
65272;BMP280;51868;48.812;8.198;2023-04-06T00:28:35;100730.28;;;5.22
65272;BMP280;51868;48.812;8.198;2023-04-06T00:31:02;100731.25;;;5.16
65272;BMP280;51868;48.812;8.198;2023-04-06T00:33:30;100723.25;;;5.11
65272;BMP280;51868;48.812;8.198;2023-04-06T00:35:58;100722.22;;;5.06
65272;BMP280;51868;48.812;8.198;2023-04-06T00:38:27;100729.00;;;5.05
65272;BMP280;51868;48.812;8.198;2023-04-06T00:40:54;100720.25;;;4.99
65272;BMP280;51868;48.812;8.198;2023-04-06T00:43:22;100728.84;;;4.86
65272;BMP280;51868;48.812;8.198;2023-04-06T00:45:50;100730.47;;;4.71
65272;BMP280;51868;48.812;8.198;2023-04-06T00:48:18;100729.47;;;4.59
65272;BMP280;51868;48.812;8.198;2023-04-06T00:50:46;100722.34;;;4.56
65272;BMP280;51868;48.812;8.198;2023-04-06T00:53:13;100723.78;;;4.57
65272;BMP280;51868;48.812;8.198;2023-04-06T00:55:42;100727.34;;;4.50
65272;BMP280;51868;48.812;8.198;2023-04-06T00:58:10;100729.41;;;4.42
65272;BMP280;51868;48.812;8.198;2023-04-06T01:00:37;100714.66;;;4.37
65272;BMP280;51868;48.812;8.198;2023-04-06T01:03:05;100718.28;;;4.40
65272;BMP280;51868;48.812;8.198;2023-04-06T01:05:33;100720.69;;;4.36
65272;BMP280;51868;48.812;8.198;2023-04-06T01:08:01;100716.88;;;4.31
65272;BMP280;51868;48.812;8.198;2023-04-06T01:10:28;100717.09;;;4.25
65272;BMP280;51868;48.812;8.198;2023-04-06T01:12:57;100718.78;;;4.21
65272;BMP280;51868;48.812;8.198;2023-04-06T01:15:25;100719.19;;;4.17
65272;BMP280;51868;48.812;8.198;2023-04-06T01:17:53;100711.53;;;4.16
65272;BMP280;51868;48.812;8.198;2023-04-06T01:20:20;100717.38;;;4.12
65272;BMP280;51868;48.812;8.198;2023-04-06T01:22:49;100711.16;;;4.12
65272;BMP280;51868;48.812;8.198;2023-04-06T01:25:17;100707.31;;;4.15
65272;BMP280;51868;48.812;8.198;2023-04-06T01:27:45;100704.00;;;4.16
65272;BMP280;51868;48.812;8.198;2023-04-06T01:30:13;100713.19;;;4.11
65272;BMP280;51868;48.812;8.198;2023-04-06T01:32:40;100700.22;;;4.04
65272;BMP280;51868;48.812;8.198;2023-04-06T01:35:08;100694.72;;;4.04
65272;BMP280;51868;48.812;8.198;2023-04-06T01:37:36;100704.25;;;4.03
65272;BMP280;51868;48.812;8.198;2023-04-06T01:40:06;100702.22;;;4.03
65272;BMP280;51868;48.812;8.198;2023-04-06T01:42:34;100692.72;;;4.04
65272;BMP280;51868;48.812;8.198;2023-04-06T01:45:01;100690.69;;;4.05
65272;BMP280;51868;48.812;8.198;2023-04-06T01:47:29;100694.00;;;4.03
65272;BMP280;51868;48.812;8.198;2023-04-06T01:49:57;100685.75;;;4.03
65272;BMP280;51868;48.812;8.198;2023-04-06T01:52:24;100685.56;;;4.09
65272;BMP280;51868;48.812;8.198;2023-04-06T01:54:52;100684.44;;;4.12
65272;BMP280;51868;48.812;8.198;2023-04-06T01:57:21;100680.06;;;4.09
65272;BMP280;51868;48.812;8.198;2023-04-06T01:59:48;100688.69;;;4.05
65272;BMP280;51868;48.812;8.198;2023-04-06T02:02:16;100670.00;;;4.04
65272;BMP280;51868;48.812;8.198;2023-04-06T02:04:44;100678.66;;;4.00
65272;BMP280;51868;48.812;8.198;2023-04-06T02:07:11;100679.19;;;3.99
65272;BMP280;51868;48.812;8.198;2023-04-06T02:09:39;100678.25;;;4.04
65272;BMP280;51868;48.812;8.198;2023-04-06T02:12:06;100682.47;;;4.05
65272;BMP280;51868;48.812;8.198;2023-04-06T02:14:35;100680.09;;;4.01
65272;BMP280;51868;48.812;8.198;2023-04-06T02:17:03;100670.81;;;3.97
65272;BMP280;51868;48.812;8.198;2023-04-06T02:19:31;100674.34;;;3.90
65272;BMP280;51868;48.812;8.198;2023-04-06T02:21:58;100682.22;;;3.85
65272;BMP280;51868;48.812;8.198;2023-04-06T02:24:26;100681.31;;;3.83
65272;BMP280;51868;48.812;8.198;2023-04-06T02:26:54;100674.03;;;3.78
65272;BMP280;51868;48.812;8.198;2023-04-06T02:29:21;100686.88;;;3.75
65272;BMP280;51868;48.812;8.198;2023-04-06T02:31:50;100678.47;;;3.73
65272;BMP280;51868;48.812;8.198;2023-04-06T02:34:18;100682.34;;;3.70
65272;BMP280;51868;48.812;8.198;2023-04-06T02:36:45;100678.31;;;3.71
65272;BMP280;51868;48.812;8.198;2023-04-06T02:39:13;100675.00;;;3.73
65272;BMP280;51868;48.812;8.198;2023-04-06T02:41:41;100676.28;;;3.72
65272;BMP280;51868;48.812;8.198;2023-04-06T02:44:09;100674.09;;;3.70
65272;BMP280;51868;48.812;8.198;2023-04-06T02:46:37;100671.19;;;3.68
65272;BMP280;51868;48.812;8.198;2023-04-06T02:49:06;100666.81;;;3.65
65272;BMP280;51868;48.812;8.198;2023-04-06T02:51:33;100662.78;;;3.66
65272;BMP280;51868;48.812;8.198;2023-04-06T02:54:01;100666.25;;;3.67
65272;BMP280;51868;48.812;8.198;2023-04-06T02:56:29;100670.84;;;3.64
65272;BMP280;51868;48.812;8.198;2023-04-06T02:58:56;100668.31;;;3.58
65272;BMP280;51868;48.812;8.198;2023-04-06T03:01:24;100668.69;;;3.55
65272;BMP280;51868;48.812;8.198;2023-04-06T03:03:51;100667.06;;;3.52
65272;BMP280;51868;48.812;8.198;2023-04-06T03:06:21;100670.53;;;3.52
65272;BMP280;51868;48.812;8.198;2023-04-06T03:08:48;100667.63;;;3.50
65272;BMP280;51868;48.812;8.198;2023-04-06T03:11:16;100669.47;;;3.48
65272;BMP280;51868;48.812;8.198;2023-04-06T03:13:44;100666.38;;;3.43
65272;BMP280;51868;48.812;8.198;2023-04-06T03:16:12;100657.78;;;3.39
65272;BMP280;51868;48.812;8.198;2023-04-06T03:18:39;100665.13;;;3.37
65272;BMP280;51868;48.812;8.198;2023-04-06T03:21:07;100664.94;;;3.35
65272;BMP280;51868;48.812;8.198;2023-04-06T03:23:36;100668.06;;;3.31
65272;BMP280;51868;48.812;8.198;2023-04-06T03:26:03;100668.44;;;3.28
65272;BMP280;51868;48.812;8.198;2023-04-06T03:28:31;100656.75;;;3.27
65272;BMP280;51868;48.812;8.198;2023-04-06T03:30:59;100658.03;;;3.26
65272;BMP280;51868;48.812;8.198;2023-04-06T03:33:26;100655.28;;;3.26
65272;BMP280;51868;48.812;8.198;2023-04-06T03:35:54;100659.50;;;3.27
65272;BMP280;51868;48.812;8.198;2023-04-06T03:38:22;100661.50;;;3.27
65272;BMP280;51868;48.812;8.198;2023-04-06T03:40:51;100663.38;;;3.24
65272;BMP280;51868;48.812;8.198;2023-04-06T03:43:18;100660.63;;;3.24
65272;BMP280;51868;48.812;8.198;2023-04-06T03:45:46;100666.66;;;3.23
65272;BMP280;51868;48.812;8.198;2023-04-06T03:48:13;100659.72;;;3.22
65272;BMP280;51868;48.812;8.198;2023-04-06T03:50:41;100665.22;;;3.22
65272;BMP280;51868;48.812;8.198;2023-04-06T03:53:09;100664.47;;;3.21
65272;BMP280;51868;48.812;8.198;2023-04-06T03:55:37;100663.00;;;3.20
65272;BMP280;51868;48.812;8.198;2023-04-06T03:58:06;100673.81;;;3.18
65272;BMP280;51868;48.812;8.198;2023-04-06T04:00:33;100673.09;;;3.17
65272;BMP280;51868;48.812;8.198;2023-04-06T04:03:01;100676.94;;;3.14
65272;BMP280;51868;48.812;8.198;2023-04-06T04:05:29;100680.22;;;3.13
65272;BMP280;51868;48.812;8.198;2023-04-06T04:07:57;100677.47;;;3.13
65272;BMP280;51868;48.812;8.198;2023-04-06T04:10:25;100680.22;;;3.13
65272;BMP280;51868;48.812;8.198;2023-04-06T04:12:52;100682.78;;;3.11
65272;BMP280;51868;48.812;8.198;2023-04-06T04:15:21;100698.34;;;3.08
65272;BMP280;51868;48.812;8.198;2023-04-06T04:17:49;100691.41;;;3.07
65272;BMP280;51868;48.812;8.198;2023-04-06T04:20:17;100688.66;;;3.07
65272;BMP280;51868;48.812;8.198;2023-04-06T04:22:44;100700.34;;;3.08
65272;BMP280;51868;48.812;8.198;2023-04-06T04:25:12;100703.63;;;3.06
65272;BMP280;51868;48.812;8.198;2023-04-06T04:27:39;100705.09;;;2.99
65272;BMP280;51868;48.812;8.198;2023-04-06T04:30:07;100706.25;;;2.96
65272;BMP280;51868;48.812;8.198;2023-04-06T04:32:37;100713.91;;;2.98
65272;BMP280;51868;48.812;8.198;2023-04-06T04:35:05;100712.41;;;2.97
65272;BMP280;51868;48.812;8.198;2023-04-06T04:37:32;100711.72;;;2.96
65272;BMP280;51868;48.812;8.198;2023-04-06T04:40:00;100720.66;;;2.97
65272;BMP280;51868;48.812;8.198;2023-04-06T04:42:28;100711.88;;;2.98
65272;BMP280;51868;48.812;8.198;2023-04-06T04:44:56;100709.50;;;3.03
65272;BMP280;51868;48.812;8.198;2023-04-06T04:47:23;100715.31;;;3.07
65272;BMP280;51868;48.812;8.198;2023-04-06T04:49:52;100710.22;;;3.11
65272;BMP280;51868;48.812;8.198;2023-04-06T04:52:20;100714.75;;;3.16
65272;BMP280;51868;48.812;8.198;2023-04-06T04:54:48;100713.81;;;3.21
65272;BMP280;51868;48.812;8.198;2023-04-06T04:57:15;100712.03;;;3.24
65272;BMP280;51868;48.812;8.198;2023-04-06T04:59:43;100710.88;;;3.27
65272;BMP280;51868;48.812;8.198;2023-04-06T05:02:10;100718.56;;;3.28
65272;BMP280;51868;48.812;8.198;2023-04-06T05:04:38;100721.31;;;3.28
65272;BMP280;51868;48.812;8.198;2023-04-06T05:07:07;100722.56;;;3.27
65272;BMP280;51868;48.812;8.198;2023-04-06T05:09:35;100723.72;;;3.24
65272;BMP280;51868;48.812;8.198;2023-04-06T05:12:03;100729.19;;;3.24
65272;BMP280;51868;48.812;8.198;2023-04-06T05:14:30;100726.28;;;3.22
65272;BMP280;51868;48.812;8.198;2023-04-06T05:16:59;100734.31;;;3.20
65272;BMP280;51868;48.812;8.198;2023-04-06T05:19:26;100725.19;;;3.17
65272;BMP280;51868;48.812;8.198;2023-04-06T05:21:54;100729.94;;;3.17
65272;BMP280;51868;48.812;8.198;2023-04-06T05:24:23;100734.16;;;3.18
65272;BMP280;51868;48.812;8.198;2023-04-06T05:26:51;100738.19;;;3.17
65272;BMP280;51868;48.812;8.198;2023-04-06T05:29:19;100743.13;;;3.11
65272;BMP280;51868;48.812;8.198;2023-04-06T05:31:48;100737.63;;;3.11
65272;BMP280;51868;48.812;8.198;2023-04-06T05:34:15;100741.47;;;3.15
65272;BMP280;51868;48.812;8.198;2023-04-06T05:36:43;100742.56;;;3.20
65272;BMP280;51868;48.812;8.198;2023-04-06T05:39:10;100744.94;;;3.24
65272;BMP280;51868;48.812;8.198;2023-04-06T05:41:40;100746.00;;;3.28
65272;BMP280;51868;48.812;8.198;2023-04-06T05:44:07;100742.50;;;3.35
65272;BMP280;51868;48.812;8.198;2023-04-06T05:46:35;100745.41;;;3.45
65272;BMP280;51868;48.812;8.198;2023-04-06T05:49:03;100745.00;;;3.49
65272;BMP280;51868;48.812;8.198;2023-04-06T05:51:32;100737.84;;;3.53
65272;BMP280;51868;48.812;8.198;2023-04-06T05:53:59;100742.19;;;3.64
65272;BMP280;51868;48.812;8.198;2023-04-06T05:56:32;100738.31;;;3.75
65272;BMP280;51868;48.812;8.198;2023-04-06T05:59:01;100728.56;;;3.81
65272;BMP280;51868;48.812;8.198;2023-04-06T06:01:28;100733.31;;;3.81
65272;BMP280;51868;48.812;8.198;2023-04-06T06:03:56;100736.22;;;3.83
65272;BMP280;51868;48.812;8.198;2023-04-06T06:06:24;100742.81;;;3.88
65272;BMP280;51868;48.812;8.198;2023-04-06T06:08:52;100733.47;;;3.91
65272;BMP280;51868;48.812;8.198;2023-04-06T06:11:19;100730.72;;;3.91
65272;BMP280;51868;48.812;8.198;2023-04-06T06:13:47;100730.81;;;4.00
65272;BMP280;51868;48.812;8.198;2023-04-06T06:16:16;100730.56;;;4.14
65272;BMP280;51868;48.812;8.198;2023-04-06T06:18:44;100727.91;;;4.23
65272;BMP280;51868;48.812;8.198;2023-04-06T06:21:12;100722.38;;;4.31
65272;BMP280;51868;48.812;8.198;2023-04-06T06:23:39;100722.47;;;4.41
65272;BMP280;51868;48.812;8.198;2023-04-06T06:26:07;100726.06;;;4.51
65272;BMP280;51868;48.812;8.198;2023-04-06T06:28:34;100729.94;;;4.65
65272;BMP280;51868;48.812;8.198;2023-04-06T06:31:02;100724.47;;;4.83
65272;BMP280;51868;48.812;8.198;2023-04-06T06:33:31;100729.50;;;4.94
65272;BMP280;51868;48.812;8.198;2023-04-06T06:35:59;100717.97;;;5.05
65272;BMP280;51868;48.812;8.198;2023-04-06T06:38:26;100721.53;;;5.15
65272;BMP280;51868;48.812;8.198;2023-04-06T06:40:54;100717.31;;;5.32
65272;BMP280;51868;48.812;8.198;2023-04-06T06:43:22;100719.16;;;5.47
65272;BMP280;51868;48.812;8.198;2023-04-06T06:45:49;100725.88;;;5.63
65272;BMP280;51868;48.812;8.198;2023-04-06T06:48:17;100721.22;;;5.83
65272;BMP280;51868;48.812;8.198;2023-04-06T06:50:46;100724.31;;;5.97
65272;BMP280;51868;48.812;8.198;2023-04-06T06:53:14;100727.25;;;6.08
65272;BMP280;51868;48.812;8.198;2023-04-06T06:55:42;100728.16;;;6.21
65272;BMP280;51868;48.812;8.198;2023-04-06T06:58:10;100727.19;;;6.36
65272;BMP280;51868;48.812;8.198;2023-04-06T07:00:38;100727.06;;;6.53
65272;BMP280;51868;48.812;8.198;2023-04-06T07:03:05;100714.03;;;6.73
65272;BMP280;51868;48.812;8.198;2023-04-06T07:05:33;100717.81;;;6.87
65272;BMP280;51868;48.812;8.198;2023-04-06T07:08:02;100711.53;;;7.06
65272;BMP280;51868;48.812;8.198;2023-04-06T07:10:29;100717.31;;;7.20
65272;BMP280;51868;48.812;8.198;2023-04-06T07:12:57;100719.47;;;7.31
65272;BMP280;51868;48.812;8.198;2023-04-06T07:15:25;100711.59;;;7.47
65272;BMP280;51868;48.812;8.198;2023-04-06T07:17:52;100707.31;;;7.65
65272;BMP280;51868;48.812;8.198;2023-04-06T07:20:20;100701.81;;;7.87
65272;BMP280;51868;48.812;8.198;2023-04-06T07:22:48;100704.91;;;8.13
65272;BMP280;51868;48.812;8.198;2023-04-06T07:25:17;100700.81;;;8.35
65272;BMP280;51868;48.812;8.198;2023-04-06T07:27:45;100701.03;;;8.49
65272;BMP280;51868;48.812;8.198;2023-04-06T07:30:14;100697.97;;;8.66
65272;BMP280;51868;48.812;8.198;2023-04-06T07:32:42;100699.13;;;8.85
65272;BMP280;51868;48.812;8.198;2023-04-06T07:35:09;100696.03;;;9.02
65272;BMP280;51868;48.812;8.198;2023-04-06T07:37:37;100695.47;;;9.15
65272;BMP280;51868;48.812;8.198;2023-04-06T07:40:05;100696.81;;;9.26
65272;BMP280;51868;48.812;8.198;2023-04-06T07:42:34;100693.69;;;9.43
65272;BMP280;51868;48.812;8.198;2023-04-06T07:45:02;100698.16;;;9.60
65272;BMP280;51868;48.812;8.198;2023-04-06T07:47:30;100702.38;;;9.73
65272;BMP280;51868;48.812;8.198;2023-04-06T07:49:57;100700.66;;;9.80
65272;BMP280;51868;48.812;8.198;2023-04-06T07:52:25;100702.59;;;9.89
65272;BMP280;51868;48.812;8.198;2023-04-06T07:54:53;100699.69;;;9.99
65272;BMP280;51868;48.812;8.198;2023-04-06T07:57:20;100699.88;;;10.14
65272;BMP280;51868;48.812;8.198;2023-04-06T07:59:49;100702.25;;;10.32
65272;BMP280;51868;48.812;8.198;2023-04-06T08:02:17;100703.16;;;10.48
65272;BMP280;51868;48.812;8.198;2023-04-06T08:04:45;100704.91;;;10.67
65272;BMP280;51868;48.812;8.198;2023-04-06T08:07:12;100699.97;;;10.79
65272;BMP280;51868;48.812;8.198;2023-04-06T08:09:40;100698.38;;;10.88
65272;BMP280;51868;48.812;8.198;2023-04-06T08:12:08;100705.69;;;10.95
65272;BMP280;51868;48.812;8.198;2023-04-06T08:14:35;100699.34;;;11.06
65272;BMP280;51868;48.812;8.198;2023-04-06T08:17:04;100691.88;;;11.23
65272;BMP280;51868;48.812;8.198;2023-04-06T08:19:32;100702.69;;;11.30
65272;BMP280;51868;48.812;8.198;2023-04-06T08:21:59;100702.59;;;11.42
65272;BMP280;51868;48.812;8.198;2023-04-06T08:24:27;100697.66;;;11.54
65272;BMP280;51868;48.812;8.198;2023-04-06T08:26:55;100695.50;;;11.67
65272;BMP280;51868;48.812;8.198;2023-04-06T08:29:23;100700.13;;;11.76
65272;BMP280;51868;48.812;8.198;2023-04-06T08:31:50;100697.22;;;11.88
65272;BMP280;51868;48.812;8.198;2023-04-06T08:34:20;100691.72;;;12.03
65272;BMP280;51868;48.812;8.198;2023-04-06T08:36:47;100695.19;;;12.18
65272;BMP280;51868;48.812;8.198;2023-04-06T08:39:16;100690.13;;;12.28
65272;BMP280;51868;48.812;8.198;2023-04-06T08:41:50;100690.16;;;12.44
65272;BMP280;51868;48.812;8.198;2023-04-06T08:44:18;100688.69;;;12.57
65272;BMP280;51868;48.812;8.198;2023-04-06T08:46:46;100685.19;;;12.72
65272;BMP280;51868;48.812;8.198;2023-04-06T08:49:14;100680.47;;;12.90
65272;BMP280;51868;48.812;8.198;2023-04-06T08:51:44;100683.22;;;13.06
65272;BMP280;51868;48.812;8.198;2023-04-06T08:54:13;100692.22;;;13.20
65272;BMP280;51868;48.812;8.198;2023-04-06T08:56:40;100692.41;;;13.24
65272;BMP280;51868;48.812;8.198;2023-04-06T08:59:09;100689.88;;;13.15
65272;BMP280;51868;48.812;8.198;2023-04-06T09:01:38;100680.44;;;13.22
65272;BMP280;51868;48.812;8.198;2023-04-06T09:04:07;100692.81;;;13.35
65272;BMP280;51868;48.812;8.198;2023-04-06T09:06:37;100694.16;;;13.50
65272;BMP280;51868;48.812;8.198;2023-04-06T09:09:08;100688.94;;;13.58
65272;BMP280;51868;48.812;8.198;2023-04-06T09:11:45;100692.28;;;13.72
65272;BMP280;51868;48.812;8.198;2023-04-06T09:14:13;100689.94;;;13.82
65272;BMP280;51868;48.812;8.198;2023-04-06T09:16:41;100684.84;;;13.94
65272;BMP280;51868;48.812;8.198;2023-04-06T09:19:09;100691.91;;;13.97
65272;BMP280;51868;48.812;8.198;2023-04-06T09:21:37;100679.31;;;13.96
65272;BMP280;51868;48.812;8.198;2023-04-06T09:24:07;100679.19;;;14.10
65272;BMP280;51868;48.812;8.198;2023-04-06T09:29:22;100679.00;;;14.42
65272;BMP280;51868;48.812;8.198;2023-04-06T09:31:50;100677.88;;;14.49
65272;BMP280;51868;48.812;8.198;2023-04-06T09:34:21;100680.31;;;14.59
65272;BMP280;51868;48.812;8.198;2023-04-06T09:36:50;100678.94;;;14.60
65272;BMP280;51868;48.812;8.198;2023-04-06T09:39:21;100678.19;;;14.77
65272;BMP280;51868;48.812;8.198;2023-04-06T09:41:51;100675.44;;;14.97
65272;BMP280;51868;48.812;8.198;2023-04-06T09:44:18;100669.41;;;15.05
65272;BMP280;51868;48.812;8.198;2023-04-06T09:46:46;100667.47;;;15.09
65272;BMP280;51868;48.812;8.198;2023-04-06T09:49:24;100672.78;;;15.21
65272;BMP280;51868;48.812;8.198;2023-04-06T09:51:55;100680.59;;;15.25
65272;BMP280;51868;48.812;8.198;2023-04-06T09:54:25;100677.19;;;15.28
65272;BMP280;51868;48.812;8.198;2023-04-06T09:56:56;100675.31;;;15.35
65272;BMP280;51868;48.812;8.198;2023-04-06T09:59:25;100676.25;;;15.41
65272;BMP280;51868;48.812;8.198;2023-04-06T10:01:58;100679.69;;;15.40
65272;BMP280;51868;48.812;8.198;2023-04-06T10:04:28;100672.16;;;15.45
65272;BMP280;51868;48.812;8.198;2023-04-06T10:06:58;100676.72;;;15.56
65272;BMP280;51868;48.812;8.198;2023-04-06T10:09:28;100672.63;;;15.59
65272;BMP280;51868;48.812;8.198;2023-04-06T10:12:02;100674.28;;;15.66
65272;BMP280;51868;48.812;8.198;2023-04-06T10:14:30;100667.53;;;15.75
65272;BMP280;51868;48.812;8.198;2023-04-06T10:16:58;100667.41;;;15.93
65272;BMP280;51868;48.812;8.198;2023-04-06T10:19:27;100664.94;;;16.03
65272;BMP280;51868;48.812;8.198;2023-04-06T10:21:56;100670.72;;;16.09
65272;BMP280;51868;48.812;8.198;2023-04-06T10:24:25;100670.00;;;16.09
65272;BMP280;51868;48.812;8.198;2023-04-06T10:27:00;100674.25;;;16.10
65272;BMP280;51868;48.812;8.198;2023-04-06T10:29:28;100671.47;;;16.12
65272;BMP280;51868;48.812;8.198;2023-04-06T10:32:07;100674.34;;;16.14
65272;BMP280;51868;48.812;8.198;2023-04-06T10:34:35;100667.69;;;16.25
65272;BMP280;51868;48.812;8.198;2023-04-06T10:37:10;100671.88;;;16.24
65272;BMP280;51868;48.812;8.198;2023-04-06T10:39:45;100666.44;;;16.30
65272;BMP280;51868;48.812;8.198;2023-04-06T10:42:14;100654.59;;;16.32
65272;BMP280;51868;48.812;8.198;2023-04-06T10:44:42;100662.31;;;16.33
65272;BMP280;51868;48.812;8.198;2023-04-06T10:47:15;100654.91;;;16.44
65272;BMP280;51868;48.812;8.198;2023-04-06T10:49:43;100647.78;;;16.63
65272;BMP280;51868;48.812;8.198;2023-04-06T10:52:11;100643.88;;;16.74
65272;BMP280;51868;48.812;8.198;2023-04-06T10:54:40;100642.44;;;16.73
65272;BMP280;51868;48.812;8.198;2023-04-06T10:57:08;100630.63;;;16.77
65272;BMP280;51868;48.812;8.198;2023-04-06T10:59:41;100639.75;;;16.77
65272;BMP280;51868;48.812;8.198;2023-04-06T11:02:08;100645.13;;;16.69
65272;BMP280;51868;48.812;8.198;2023-04-06T11:04:53;100645.03;;;16.65
65272;BMP280;51868;48.812;8.198;2023-04-06T11:07:22;100633.22;;;16.69
65272;BMP280;51868;48.812;8.198;2023-04-06T11:09:50;100635.31;;;16.68
65272;BMP280;51868;48.812;8.198;2023-04-06T11:12:36;100638.00;;;16.64
65272;BMP280;51868;48.812;8.198;2023-04-06T11:15:06;100624.69;;;16.64
65272;BMP280;51868;48.812;8.198;2023-04-06T11:17:36;100632.75;;;16.52
65272;BMP280;51868;48.812;8.198;2023-04-06T11:20:09;100624.78;;;16.42
65272;BMP280;51868;48.812;8.198;2023-04-06T11:22:36;100621.09;;;16.36
65272;BMP280;51868;48.812;8.198;2023-04-06T11:25:14;100620.63;;;16.44
65272;BMP280;51868;48.812;8.198;2023-04-06T11:27:43;100612.38;;;16.50
65272;BMP280;51868;48.812;8.198;2023-04-06T11:30:14;100622.19;;;16.51
65272;BMP280;51868;48.812;8.198;2023-04-06T11:32:42;100616.56;;;16.49
65272;BMP280;51868;48.812;8.198;2023-04-06T11:35:12;100609.97;;;16.64
65272;BMP280;51868;48.812;8.198;2023-04-06T11:37:47;100618.75;;;16.78
65272;BMP280;51868;48.812;8.198;2023-04-06T11:40:15;100612.25;;;16.70
65272;BMP280;51868;48.812;8.198;2023-04-06T11:42:43;100598.34;;;16.76
65272;BMP280;51868;48.812;8.198;2023-04-06T11:45:20;100593.88;;;16.90
65272;BMP280;51868;48.812;8.198;2023-04-06T11:47:55;100594.75;;;16.99
65272;BMP280;51868;48.812;8.198;2023-04-06T11:50:22;100595.72;;;17.10
65272;BMP280;51868;48.812;8.198;2023-04-06T11:52:57;100590.84;;;17.10
65272;BMP280;51868;48.812;8.198;2023-04-06T11:55:26;100593.97;;;16.97
65272;BMP280;51868;48.812;8.198;2023-04-06T11:57:55;100599.41;;;16.88
65272;BMP280;51868;48.812;8.198;2023-04-06T12:00:24;100594.50;;;16.89
65272;BMP280;51868;48.812;8.198;2023-04-06T12:02:52;100586.97;;;16.96
65272;BMP280;51868;48.812;8.198;2023-04-06T12:05:20;100588.72;;;17.09
65272;BMP280;51868;48.812;8.198;2023-04-06T12:07:51;100578.47;;;17.22
65272;BMP280;51868;48.812;8.198;2023-04-06T12:10:19;100584.38;;;17.34
65272;BMP280;51868;48.812;8.198;2023-04-06T12:12:47;100590.78;;;17.38
65272;BMP280;51868;48.812;8.198;2023-04-06T12:15:14;100587.75;;;17.28
65272;BMP280;51868;48.812;8.198;2023-04-06T12:17:43;100587.13;;;17.30
65272;BMP280;51868;48.812;8.198;2023-04-06T12:20:11;100583.41;;;17.21
65272;BMP280;51868;48.812;8.198;2023-04-06T12:22:50;100585.63;;;17.27
65272;BMP280;51868;48.812;8.198;2023-04-06T12:25:18;100569.84;;;17.41
65272;BMP280;51868;48.812;8.198;2023-04-06T12:27:48;100571.50;;;17.53
65272;BMP280;51868;48.812;8.198;2023-04-06T12:30:16;100570.16;;;17.56
65272;BMP280;51868;48.812;8.198;2023-04-06T12:32:45;100571.78;;;17.65
65272;BMP280;51868;48.812;8.198;2023-04-06T12:35:16;100571.16;;;17.69
65272;BMP280;51868;48.812;8.198;2023-04-06T12:37:43;100570.97;;;17.60
65272;BMP280;51868;48.812;8.198;2023-04-06T12:40:12;100567.50;;;17.62
65272;BMP280;51868;48.812;8.198;2023-04-06T12:42:41;100565.94;;;17.57
65272;BMP280;51868;48.812;8.198;2023-04-06T12:45:09;100567.88;;;17.48
65272;BMP280;51868;48.812;8.198;2023-04-06T12:47:37;100571.22;;;17.40
65272;BMP280;51868;48.812;8.198;2023-04-06T12:50:07;100564.84;;;17.38
65272;BMP280;51868;48.812;8.198;2023-04-06T12:52:34;100565.00;;;17.44
65272;BMP280;51868;48.812;8.198;2023-04-06T12:55:02;100569.47;;;17.55
65272;BMP280;51868;48.812;8.198;2023-04-06T12:57:31;100557.03;;;17.64
65272;BMP280;51868;48.812;8.198;2023-04-06T12:59:59;100556.69;;;17.82
65272;BMP280;51868;48.812;8.198;2023-04-06T13:02:27;100557.69;;;17.95
65272;BMP280;51868;48.812;8.198;2023-04-06T13:04:55;100557.59;;;17.91
65272;BMP280;51868;48.812;8.198;2023-04-06T13:07:24;100552.66;;;17.91
65272;BMP280;51868;48.812;8.198;2023-04-06T13:09:52;100561.03;;;17.87
65272;BMP280;51868;48.812;8.198;2023-04-06T13:12:20;100552.59;;;17.87
65272;BMP280;51868;48.812;8.198;2023-04-06T13:14:47;100551.25;;;17.90
65272;BMP280;51868;48.812;8.198;2023-04-06T13:17:18;100548.31;;;17.84
65272;BMP280;51868;48.812;8.198;2023-04-06T13:19:47;100542.69;;;17.84
65272;BMP280;51868;48.812;8.198;2023-04-06T13:22:15;100542.56;;;17.76
65272;BMP280;51868;48.812;8.198;2023-04-06T13:24:45;100545.16;;;17.68
65272;BMP280;51868;48.812;8.198;2023-04-06T13:27:13;100552.56;;;17.53
65272;BMP280;51868;48.812;8.198;2023-04-06T13:29:41;100553.66;;;17.40
65272;BMP280;51868;48.812;8.198;2023-04-06T13:32:15;100547.88;;;17.32
65272;BMP280;51868;48.812;8.198;2023-04-06T13:34:43;100547.78;;;17.28
65272;BMP280;51868;48.812;8.198;2023-04-06T13:37:11;100544.34;;;17.31
65272;BMP280;51868;48.812;8.198;2023-04-06T13:39:39;100547.16;;;17.31
65272;BMP280;51868;48.812;8.198;2023-04-06T13:42:08;100549.28;;;17.33
65272;BMP280;51868;48.812;8.198;2023-04-06T13:44:36;100548.59;;;17.32
65272;BMP280;51868;48.812;8.198;2023-04-06T13:47:03;100537.97;;;17.29
65272;BMP280;51868;48.812;8.198;2023-04-06T13:49:32;100542.06;;;17.24
65272;BMP280;51868;48.812;8.198;2023-04-06T13:51:59;100542.69;;;17.20
65272;BMP280;51868;48.812;8.198;2023-04-06T13:54:28;100538.63;;;17.25
65272;BMP280;51868;48.812;8.198;2023-04-06T13:56:55;100535.22;;;17.31
65272;BMP280;51868;48.812;8.198;2023-04-06T13:59:25;100538.69;;;17.29
65272;BMP280;51868;48.812;8.198;2023-04-06T14:01:58;100539.03;;;17.13
65272;BMP280;51868;48.812;8.198;2023-04-06T14:04:26;100544.94;;;16.96
65272;BMP280;51868;48.812;8.198;2023-04-06T14:06:54;100547.31;;;16.79
65272;BMP280;51868;48.812;8.198;2023-04-06T14:09:22;100539.47;;;16.74
65272;BMP280;51868;48.812;8.198;2023-04-06T14:11:49;100537.31;;;16.72
65272;BMP280;51868;48.812;8.198;2023-04-06T14:14:20;100536.44;;;16.65